SIA241 WSSS-YSSY
Flight info
| Callsign | SIA241 |
|---|---|
| Flight time | N/A |
| Altitude | 39000 |
| Route | IDBUD1A IDBUD T24 SURGA M635 BLI G326 GUNAM/N0482F410 G326 VINAX T74 VEPAP Y105 TARAL Y59 RIVET |
| Aircraft | A359/H-SDE1E2E3GHIJ1J2J3J5M1P2RWXYZ/LB1D1 |
Departure
| Time | 2026-05-04 19:29 |
|---|---|
| Airport | Singapore Changi Airport (WSSS) |
Arrival
| Time | N/A |
|---|---|
| Airport | Sydney Kingsford Smith International Airport (YSSY) |
| Time | Latitude | Longitude | Altitude | Speed | Heading |
|---|---|---|---|---|---|
| 2026-05-04 19:01 | 1.35981 | 103.98688 | 37 ft | 0 kts | 112° |
| 2026-05-04 19:18 | 1.35984 | 103.98679 | 37 ft | 4 kts | 111° |
| 2026-05-04 19:18 | 1.35993 | 103.98654 | 37 ft | 4 kts | 108° |
| 2026-05-04 19:19 | 1.36003 | 103.98629 | 37 ft | 4 kts | 123° |
| 2026-05-04 19:19 | 1.36017 | 103.98612 | 37 ft | 4 kts | 133° |
| 2026-05-04 19:19 | 1.36035 | 103.98592 | 37 ft | 4 kts | 124° |
| 2026-05-04 19:19 | 1.36044 | 103.98570 | 37 ft | 4 kts | 75° |
| 2026-05-04 19:20 | 1.36043 | 103.98564 | 37 ft | 0 kts | 62° |
| 2026-05-04 19:22 | 1.36046 | 103.98571 | 37 ft | 5 kts | 63° |
| 2026-05-04 19:22 | 1.36087 | 103.98631 | 37 ft | 10 kts | 45° |
| 2026-05-04 19:22 | 1.36156 | 103.98667 | 37 ft | 13 kts | 18° |
| 2026-05-04 19:23 | 1.36236 | 103.98702 | 37 ft | 14 kts | 22° |
| 2026-05-04 19:23 | 1.36330 | 103.98741 | 37 ft | 15 kts | 22° |
| 2026-05-04 19:23 | 1.36436 | 103.98785 | 36 ft | 18 kts | 22° |
| 2026-05-04 19:23 | 1.36498 | 103.98808 | 37 ft | 0 kts | 15° |
| 2026-05-04 19:24 | 1.36555 | 103.98811 | 37 ft | 13 kts | 353° |
| 2026-05-04 19:24 | 1.36654 | 103.98799 | 37 ft | 13 kts | 355° |
| 2026-05-04 19:24 | 1.36745 | 103.98817 | 37 ft | 15 kts | 23° |
| 2026-05-04 19:24 | 1.36846 | 103.98859 | 37 ft | 17 kts | 23° |
| 2026-05-04 19:25 | 1.36960 | 103.98908 | 37 ft | 19 kts | 23° |
| 2026-05-04 19:25 | 1.37014 | 103.98931 | 37 ft | 0 kts | 23° |
| 2026-05-04 19:25 | 1.37062 | 103.98940 | 37 ft | 9 kts | 353° |
| 2026-05-04 19:25 | 1.37117 | 103.98902 | 37 ft | 11 kts | 324° |
| 2026-05-04 19:26 | 1.37191 | 103.98908 | 37 ft | 12 kts | 20° |
| 2026-05-04 19:26 | 1.37276 | 103.98942 | 37 ft | 14 kts | 24° |
| 2026-05-04 19:26 | 1.37375 | 103.98984 | 37 ft | 17 kts | 23° |
| 2026-05-04 19:26 | 1.37488 | 103.99033 | 37 ft | 19 kts | 22° |
| 2026-05-04 19:27 | 1.37614 | 103.99086 | 37 ft | 19 kts | 23° |
| 2026-05-04 19:27 | 1.37745 | 103.99141 | 37 ft | 21 kts | 23° |
| 2026-05-04 19:27 | 1.37886 | 103.99200 | 37 ft | 20 kts | 22° |
| 2026-05-04 19:27 | 1.38012 | 103.99251 | 37 ft | 18 kts | 22° |
| 2026-05-04 19:28 | 1.38102 | 103.99288 | 37 ft | 9 kts | 14° |
| 2026-05-04 19:28 | 1.38156 | 103.99264 | 37 ft | 10 kts | 309° |
| 2026-05-04 19:28 | 1.38189 | 103.99198 | 37 ft | 12 kts | 293° |
| 2026-05-04 19:28 | 1.38166 | 103.99130 | 37 ft | 12 kts | 221° |
| 2026-05-04 19:29 | 1.38065 | 103.99083 | 37 ft | 36 kts | 203° |
| 2026-05-04 19:29 | 1.37499 | 103.98844 | 37 ft | 138 kts | 203° |
| 2026-05-04 19:29 | 1.36400 | 103.98374 | 479 ft | 186 kts | 202° |
| 2026-05-04 19:29 | 1.35179 | 103.97875 | 1687 ft | 196 kts | 202° |
| 2026-05-04 19:30 | 1.33909 | 103.97347 | 2395 ft | 202 kts | 203° |
| 2026-05-04 19:30 | 1.32574 | 103.96779 | 2814 ft | 219 kts | 203° |
| 2026-05-04 19:30 | 1.31096 | 103.96152 | 3290 ft | 239 kts | 202° |
| 2026-05-04 19:30 | 1.29492 | 103.95468 | 3688 ft | 261 kts | 203° |
| 2026-05-04 19:31 | 1.27784 | 103.94739 | 4322 ft | 271 kts | 203° |
| 2026-05-04 19:31 | 1.26027 | 103.94003 | 5116 ft | 276 kts | 203° |
| 2026-05-04 19:31 | 1.24195 | 103.93379 | 5703 ft | 281 kts | 191° |
| 2026-05-04 19:31 | 1.22254 | 103.93440 | 5972 ft | 282 kts | 166° |
| 2026-05-04 19:32 | 1.20374 | 103.94022 | 5999 ft | 284 kts | 160° |
| 2026-05-04 19:32 | 1.18513 | 103.94687 | 6000 ft | 285 kts | 160° |
| 2026-05-04 19:32 | 1.16647 | 103.95352 | 5995 ft | 283 kts | 160° |
| 2026-05-04 19:32 | 1.14777 | 103.96008 | 5998 ft | 287 kts | 161° |
| 2026-05-04 19:33 | 1.12897 | 103.96660 | 5995 ft | 286 kts | 161° |
| 2026-05-04 19:33 | 1.11044 | 103.97369 | 5994 ft | 286 kts | 153° |
| 2026-05-04 19:33 | 1.09381 | 103.98442 | 6000 ft | 285 kts | 143° |
| 2026-05-04 19:33 | 1.07810 | 103.99647 | 5998 ft | 285 kts | 142° |
| 2026-05-04 19:34 | 1.06247 | 104.00867 | 5998 ft | 285 kts | 142° |
| 2026-05-04 19:34 | 1.04685 | 104.02082 | 5995 ft | 285 kts | 142° |
| 2026-05-04 19:34 | 1.03189 | 104.03373 | 5991 ft | 285 kts | 131° |
| 2026-05-04 19:34 | 1.02147 | 104.05042 | 6001 ft | 283 kts | 114° |
| 2026-05-04 19:35 | 1.01364 | 104.06847 | 5994 ft | 283 kts | 112° |
| 2026-05-04 19:35 | 1.00612 | 104.08668 | 5997 ft | 283 kts | 112° |
| 2026-05-04 19:35 | 0.99857 | 104.10486 | 5998 ft | 283 kts | 112° |
| 2026-05-04 19:35 | 0.99096 | 104.12304 | 5998 ft | 284 kts | 112° |
| 2026-05-04 19:36 | 0.98338 | 104.14122 | 6119 ft | 284 kts | 112° |
| 2026-05-04 19:36 | 0.97568 | 104.15956 | 6706 ft | 288 kts | 112° |
| 2026-05-04 19:36 | 0.96802 | 104.17775 | 7575 ft | 288 kts | 112° |
| 2026-05-04 19:36 | 0.96019 | 104.19630 | 8404 ft | 291 kts | 112° |
| 2026-05-04 19:37 | 0.95227 | 104.21504 | 9178 ft | 295 kts | 112° |
| 2026-05-04 19:37 | 0.94298 | 104.23342 | 9933 ft | 298 kts | 120° |
| 2026-05-04 19:37 | 0.93206 | 104.25138 | 10523 ft | 310 kts | 122° |
| 2026-05-04 19:37 | 0.92028 | 104.27020 | 10870 ft | 329 kts | 122° |
| 2026-05-04 19:38 | 0.90783 | 104.29007 | 11194 ft | 346 kts | 122° |
| 2026-05-04 19:38 | 0.89483 | 104.31089 | 11598 ft | 359 kts | 122° |
| 2026-05-04 19:38 | 0.88152 | 104.33222 | 12231 ft | 364 kts | 122° |
| 2026-05-04 19:38 | 0.86807 | 104.35379 | 12916 ft | 367 kts | 122° |
| 2026-05-04 19:39 | 0.85453 | 104.37553 | 13599 ft | 370 kts | 121° |
| 2026-05-04 19:39 | 0.84087 | 104.39746 | 14232 ft | 373 kts | 121° |
| 2026-05-04 19:39 | 0.82711 | 104.41955 | 14865 ft | 376 kts | 121° |
| 2026-05-04 19:39 | 0.81306 | 104.44171 | 15488 ft | 379 kts | 123° |
| 2026-05-04 19:40 | 0.79776 | 104.46327 | 16099 ft | 382 kts | 125° |
| 2026-05-04 19:40 | 0.78208 | 104.48481 | 16701 ft | 384 kts | 125° |
| 2026-05-04 19:40 | 0.76637 | 104.50655 | 17263 ft | 387 kts | 124° |
| 2026-05-04 19:40 | 0.75064 | 104.52848 | 17824 ft | 390 kts | 124° |
| 2026-05-04 19:41 | 0.73419 | 104.55010 | 18356 ft | 393 kts | 130° |
| 2026-05-04 19:41 | 0.71325 | 104.56787 | 18829 ft | 400 kts | 147° |
| 2026-05-04 19:41 | 0.68763 | 104.57902 | 19321 ft | 405 kts | 160° |
| 2026-05-04 19:41 | 0.66049 | 104.58721 | 19814 ft | 409 kts | 162° |
| 2026-05-04 19:42 | 0.63307 | 104.59515 | 20295 ft | 412 kts | 162° |
| 2026-05-04 19:42 | 0.60542 | 104.60319 | 20774 ft | 415 kts | 162° |
| 2026-05-04 19:42 | 0.57760 | 104.61134 | 21249 ft | 418 kts | 162° |
| 2026-05-04 19:42 | 0.54963 | 104.61959 | 21727 ft | 421 kts | 162° |
| 2026-05-04 19:43 | 0.52164 | 104.62849 | 22173 ft | 423 kts | 158° |
| 2026-05-04 19:43 | 0.49501 | 104.64099 | 22613 ft | 424 kts | 148° |
| 2026-05-04 19:43 | 0.47108 | 104.65823 | 23049 ft | 425 kts | 137° |
| 2026-05-04 19:43 | 0.45084 | 104.67973 | 23466 ft | 426 kts | 126° |
| 2026-05-04 19:44 | 0.43448 | 104.70447 | 23881 ft | 428 kts | 120° |
| 2026-05-04 19:44 | 0.41954 | 104.73029 | 24281 ft | 431 kts | 119° |
| 2026-05-04 19:44 | 0.40464 | 104.75642 | 24704 ft | 434 kts | 119° |
| 2026-05-04 19:44 | 0.38960 | 104.78269 | 25133 ft | 437 kts | 119° |
| 2026-05-04 19:45 | 0.37442 | 104.80910 | 25577 ft | 440 kts | 119° |
| 2026-05-04 19:45 | 0.35912 | 104.83564 | 26016 ft | 442 kts | 119° |
| 2026-05-04 19:45 | 0.34369 | 104.86238 | 26474 ft | 446 kts | 119° |
| 2026-05-04 19:45 | 0.32815 | 104.88928 | 26928 ft | 449 kts | 119° |
| 2026-05-04 19:46 | 0.31246 | 104.91643 | 27363 ft | 453 kts | 119° |
| 2026-05-04 19:46 | 0.29668 | 104.94375 | 27840 ft | 456 kts | 119° |
| 2026-05-04 19:46 | 0.28078 | 104.97125 | 28303 ft | 458 kts | 119° |
| 2026-05-04 19:46 | 0.26479 | 104.99891 | 28745 ft | 461 kts | 120° |
| 2026-05-04 19:47 | 0.24870 | 105.02675 | 29202 ft | 464 kts | 120° |
| 2026-05-04 19:47 | 0.23255 | 105.05477 | 29646 ft | 466 kts | 119° |
| 2026-05-04 19:47 | 0.21629 | 105.08292 | 30059 ft | 469 kts | 120° |
| 2026-05-04 19:47 | 0.19990 | 105.11125 | 30460 ft | 472 kts | 120° |
| 2026-05-04 19:48 | 0.18342 | 105.13972 | 30823 ft | 476 kts | 120° |
| 2026-05-04 19:48 | 0.16679 | 105.16844 | 31173 ft | 478 kts | 120° |
| 2026-05-04 19:48 | 0.15009 | 105.19729 | 31518 ft | 481 kts | 120° |
| 2026-05-04 19:48 | 0.13329 | 105.22630 | 31863 ft | 484 kts | 120° |
| 2026-05-04 19:49 | 0.11641 | 105.25550 | 32148 ft | 487 kts | 120° |
| 2026-05-04 19:49 | 0.09941 | 105.28489 | 32415 ft | 490 kts | 120° |
| 2026-05-04 19:49 | 0.08232 | 105.31445 | 32705 ft | 492 kts | 120° |
| 2026-05-04 19:49 | 0.06516 | 105.34415 | 32979 ft | 495 kts | 120° |
| 2026-05-04 19:50 | 0.04813 | 105.37361 | 33239 ft | 497 kts | 120° |
| 2026-05-04 19:50 | 0.03080 | 105.40358 | 33535 ft | 499 kts | 120° |
| 2026-05-04 19:50 | 0.01342 | 105.43363 | 33855 ft | 499 kts | 120° |
| 2026-05-04 19:50 | -0.00396 | 105.46366 | 34230 ft | 499 kts | 120° |
| 2026-05-04 19:51 | -0.02131 | 105.49365 | 34584 ft | 498 kts | 120° |
| 2026-05-04 19:51 | -0.03864 | 105.52360 | 34966 ft | 497 kts | 120° |
| 2026-05-04 19:51 | -0.05592 | 105.55345 | 35320 ft | 496 kts | 120° |
| 2026-05-04 19:51 | -0.07315 | 105.58325 | 35699 ft | 494 kts | 120° |
| 2026-05-04 19:52 | -0.09032 | 105.61295 | 36049 ft | 494 kts | 120° |
| 2026-05-04 19:52 | -0.10748 | 105.64265 | 36362 ft | 493 kts | 119° |
| 2026-05-04 19:52 | -0.12464 | 105.67233 | 36647 ft | 493 kts | 119° |
| 2026-05-04 19:52 | -0.14181 | 105.70201 | 36933 ft | 493 kts | 119° |
| 2026-05-04 19:53 | -0.15892 | 105.73159 | 37307 ft | 490 kts | 119° |
| 2026-05-04 19:53 | -0.17590 | 105.76095 | 37694 ft | 487 kts | 119° |
| 2026-05-04 19:53 | -0.19279 | 105.79018 | 38049 ft | 484 kts | 119° |
| 2026-05-04 19:53 | -0.20960 | 105.81927 | 38350 ft | 483 kts | 119° |
| 2026-05-04 19:54 | -0.22640 | 105.84830 | 38609 ft | 482 kts | 119° |
| 2026-05-04 19:54 | -0.24317 | 105.87730 | 38832 ft | 482 kts | 119° |
| 2026-05-04 19:54 | -0.25995 | 105.90632 | 38878 ft | 482 kts | 119° |
| 2026-05-04 19:55 | -0.29346 | 105.96428 | 38879 ft | 482 kts | 119° |
| 2026-05-04 19:55 | -0.32697 | 106.02224 | 38879 ft | 482 kts | 119° |
| 2026-05-04 19:56 | -0.36051 | 106.08024 | 38878 ft | 482 kts | 119° |
| 2026-05-04 19:56 | -0.39403 | 106.13821 | 38879 ft | 482 kts | 119° |
| 2026-05-04 19:57 | -0.42733 | 106.19580 | 38879 ft | 482 kts | 119° |
| 2026-05-04 19:57 | -0.46083 | 106.25373 | 38879 ft | 482 kts | 119° |
| 2026-05-04 19:58 | -0.49435 | 106.31170 | 38879 ft | 482 kts | 119° |
| 2026-05-04 19:58 | -0.52244 | 106.36028 | 38878 ft | 482 kts | 119° |
| 2026-05-04 19:59 | -0.55573 | 106.41787 | 38878 ft | 482 kts | 119° |
| 2026-05-04 19:59 | -0.58927 | 106.47587 | 38879 ft | 482 kts | 119° |
| 2026-05-04 20:00 | -0.62595 | 106.53184 | 38882 ft | 483 kts | 129° |
| 2026-05-04 20:00 | -0.67698 | 106.59150 | 38878 ft | 483 kts | 130° |
| 2026-05-04 20:01 | -0.71416 | 106.63322 | 38880 ft | 484 kts | 131° |
| 2026-05-04 20:01 | -0.75898 | 106.68337 | 38877 ft | 484 kts | 130° |
| 2026-05-04 20:02 | -0.80371 | 106.73363 | 38878 ft | 484 kts | 130° |
| 2026-05-04 20:02 | -0.84839 | 106.78396 | 38879 ft | 484 kts | 130° |
| 2026-05-04 20:03 | -0.89303 | 106.83432 | 38879 ft | 484 kts | 130° |
| 2026-05-04 20:03 | -0.93770 | 106.88469 | 38878 ft | 484 kts | 130° |
| 2026-05-04 20:04 | -0.98237 | 106.93503 | 38876 ft | 484 kts | 130° |
| 2026-05-04 20:04 | -1.02702 | 106.98536 | 38877 ft | 484 kts | 130° |
| 2026-05-04 20:05 | -1.07169 | 107.03574 | 38878 ft | 484 kts | 130° |
| 2026-05-04 20:05 | -1.11634 | 107.08610 | 38880 ft | 484 kts | 130° |
| 2026-05-04 20:06 | -1.16069 | 107.13612 | 38877 ft | 484 kts | 130° |
| 2026-05-04 20:06 | -1.20537 | 107.18650 | 38877 ft | 484 kts | 130° |
| 2026-05-04 20:07 | -1.25005 | 107.23689 | 38879 ft | 484 kts | 130° |
| 2026-05-04 20:07 | -1.29477 | 107.28733 | 38880 ft | 485 kts | 130° |
| 2026-05-04 20:08 | -1.33952 | 107.33777 | 38878 ft | 485 kts | 130° |
| 2026-05-04 20:08 | -1.38424 | 107.38836 | 39161 ft | 486 kts | 130° |
| 2026-05-04 20:08 | -1.40636 | 107.41386 | 39379 ft | 485 kts | 130° |
| 2026-05-04 20:09 | -1.42836 | 107.43943 | 39584 ft | 486 kts | 129° |
| 2026-05-04 20:09 | -1.45034 | 107.46503 | 39789 ft | 485 kts | 129° |
| 2026-05-04 20:09 | -1.47235 | 107.49066 | 40003 ft | 485 kts | 129° |
| 2026-05-04 20:09 | -1.49429 | 107.51617 | 40178 ft | 485 kts | 129° |
| 2026-05-04 20:10 | -1.51633 | 107.54175 | 40354 ft | 485 kts | 129° |
| 2026-05-04 20:10 | -1.53839 | 107.56733 | 40526 ft | 485 kts | 129° |
| 2026-05-04 20:10 | -1.56041 | 107.59286 | 40688 ft | 485 kts | 129° |
| 2026-05-04 20:10 | -1.58246 | 107.61842 | 40837 ft | 486 kts | 129° |
| 2026-05-04 20:11 | -1.60454 | 107.64400 | 40886 ft | 486 kts | 129° |
| 2026-05-04 20:11 | -1.64863 | 107.69509 | 40882 ft | 485 kts | 129° |
| 2026-05-04 20:12 | -1.69271 | 107.74618 | 40878 ft | 485 kts | 129° |
| 2026-05-04 20:12 | -1.73680 | 107.79728 | 40877 ft | 485 kts | 129° |
| 2026-05-04 20:13 | -1.78090 | 107.84841 | 40883 ft | 485 kts | 129° |
| 2026-05-04 20:13 | -1.82499 | 107.89951 | 40878 ft | 485 kts | 129° |
| 2026-05-04 20:14 | -1.86909 | 107.95064 | 40882 ft | 485 kts | 129° |
| 2026-05-04 20:14 | -1.91318 | 108.00176 | 40875 ft | 485 kts | 129° |
| 2026-05-04 20:15 | -1.95725 | 108.05286 | 40871 ft | 485 kts | 129° |
| 2026-05-04 20:15 | -2.00136 | 108.10402 | 40885 ft | 485 kts | 129° |
| 2026-05-04 20:16 | -2.04516 | 108.15482 | 40881 ft | 485 kts | 129° |
| 2026-05-04 20:16 | -2.08921 | 108.20597 | 40880 ft | 485 kts | 129° |
| 2026-05-04 20:17 | -2.13334 | 108.25708 | 40883 ft | 485 kts | 129° |
| 2026-05-04 20:17 | -2.17744 | 108.30815 | 40881 ft | 485 kts | 129° |
| 2026-05-04 20:18 | -2.22154 | 108.35926 | 40877 ft | 485 kts | 129° |
| 2026-05-04 20:18 | -2.26561 | 108.41034 | 40880 ft | 485 kts | 129° |
| 2026-05-04 20:19 | -2.30965 | 108.46141 | 40878 ft | 485 kts | 129° |
| 2026-05-04 20:19 | -2.35369 | 108.51248 | 40877 ft | 485 kts | 129° |
| 2026-05-04 20:20 | -2.39770 | 108.56351 | 40878 ft | 484 kts | 129° |
| 2026-05-04 20:20 | -2.44168 | 108.61453 | 40880 ft | 484 kts | 129° |
| 2026-05-04 20:21 | -2.48565 | 108.66553 | 40877 ft | 484 kts | 129° |
| 2026-05-04 20:21 | -2.55165 | 108.74195 | 40878 ft | 484 kts | 130° |
| 2026-05-04 20:22 | -2.59571 | 108.79278 | 40883 ft | 484 kts | 130° |
| 2026-05-04 20:22 | -2.63973 | 108.84364 | 40889 ft | 483 kts | 130° |
| 2026-05-04 20:23 | -2.68371 | 108.89447 | 40893 ft | 483 kts | 130° |
| 2026-05-04 20:23 | -2.72768 | 108.94532 | 40881 ft | 483 kts | 130° |
| 2026-05-04 20:24 | -2.77164 | 108.99616 | 40887 ft | 483 kts | 130° |
| 2026-05-04 20:24 | -2.81559 | 109.04700 | 40881 ft | 483 kts | 130° |
| 2026-05-04 20:25 | -2.85951 | 109.09780 | 40891 ft | 483 kts | 130° |
| 2026-05-04 20:25 | -2.90314 | 109.14829 | 40890 ft | 483 kts | 129° |
| 2026-05-04 20:26 | -2.94696 | 109.19918 | 40871 ft | 483 kts | 129° |
| 2026-05-04 20:26 | -2.99075 | 109.25008 | 40884 ft | 483 kts | 129° |
| 2026-05-04 20:27 | -3.03455 | 109.30098 | 40885 ft | 482 kts | 129° |
| 2026-05-04 20:27 | -3.07833 | 109.35186 | 40881 ft | 482 kts | 129° |
| 2026-05-04 20:28 | -3.12210 | 109.40274 | 40878 ft | 482 kts | 129° |
| 2026-05-04 20:28 | -3.16590 | 109.45364 | 40893 ft | 483 kts | 129° |
| 2026-05-04 20:29 | -3.20970 | 109.50456 | 40882 ft | 483 kts | 129° |
| 2026-05-04 20:29 | -3.25349 | 109.55547 | 40888 ft | 482 kts | 129° |
| 2026-05-04 20:30 | -3.29726 | 109.60637 | 40893 ft | 483 kts | 129° |
| 2026-05-04 20:30 | -3.34106 | 109.65732 | 40893 ft | 483 kts | 129° |
| 2026-05-04 20:31 | -3.38487 | 109.70828 | 40891 ft | 483 kts | 129° |
| 2026-05-04 20:31 | -3.42868 | 109.75925 | 40885 ft | 483 kts | 129° |
| 2026-05-04 20:32 | -3.47249 | 109.81023 | 40888 ft | 483 kts | 129° |
| 2026-05-04 20:32 | -3.51630 | 109.86121 | 40885 ft | 483 kts | 129° |
| 2026-05-04 20:33 | -3.56011 | 109.91221 | 40874 ft | 483 kts | 129° |
| 2026-05-04 20:33 | -3.60395 | 109.96324 | 40885 ft | 483 kts | 129° |
| 2026-05-04 20:34 | -3.64777 | 110.01426 | 40877 ft | 483 kts | 129° |
| 2026-05-04 20:34 | -3.69162 | 110.06533 | 40884 ft | 483 kts | 129° |
| 2026-05-04 20:35 | -3.73546 | 110.11638 | 40882 ft | 483 kts | 129° |
| 2026-05-04 20:35 | -3.77929 | 110.16744 | 40880 ft | 483 kts | 129° |
| 2026-05-04 20:36 | -3.82313 | 110.21852 | 40876 ft | 483 kts | 129° |
| 2026-05-04 20:36 | -3.86696 | 110.26959 | 40859 ft | 483 kts | 129° |
| 2026-05-04 20:37 | -3.91078 | 110.32067 | 40860 ft | 483 kts | 129° |
| 2026-05-04 20:37 | -3.95460 | 110.37175 | 40860 ft | 484 kts | 129° |
| 2026-05-04 20:38 | -3.99743 | 110.42365 | 40861 ft | 483 kts | 126° |
| 2026-05-04 20:38 | -4.03813 | 110.47723 | 40857 ft | 483 kts | 126° |
| 2026-05-04 20:39 | -4.07848 | 110.53056 | 40860 ft | 484 kts | 126° |
| 2026-05-04 20:39 | -4.11948 | 110.58406 | 40860 ft | 484 kts | 127° |
| 2026-05-04 20:40 | -4.16069 | 110.63747 | 40860 ft | 485 kts | 127° |
| 2026-05-04 20:40 | -4.20194 | 110.69088 | 40861 ft | 485 kts | 127° |
| 2026-05-04 20:41 | -4.24317 | 110.74430 | 40860 ft | 485 kts | 127° |
| 2026-05-04 20:41 | -4.28442 | 110.79777 | 40862 ft | 485 kts | 127° |
| 2026-05-04 20:42 | -4.32572 | 110.85132 | 40861 ft | 486 kts | 127° |
| 2026-05-04 20:42 | -4.36700 | 110.90486 | 40860 ft | 486 kts | 127° |
| 2026-05-04 20:43 | -4.40833 | 110.95847 | 40853 ft | 486 kts | 127° |
| 2026-05-04 20:43 | -4.44965 | 111.01208 | 40853 ft | 486 kts | 127° |
| 2026-05-04 20:44 | -4.49102 | 111.06577 | 40861 ft | 487 kts | 127° |
| 2026-05-04 20:44 | -4.53237 | 111.11944 | 40862 ft | 487 kts | 127° |
| 2026-05-04 20:45 | -4.56677 | 111.16410 | 40862 ft | 487 kts | 127° |
| 2026-05-04 20:45 | -4.60816 | 111.21785 | 40862 ft | 487 kts | 127° |
| 2026-05-04 20:46 | -4.64958 | 111.27160 | 40860 ft | 487 kts | 127° |
| 2026-05-04 20:46 | -4.69119 | 111.32520 | 40860 ft | 487 kts | 127° |
| 2026-05-04 20:47 | -4.73286 | 111.37885 | 40860 ft | 488 kts | 127° |
| 2026-05-04 20:47 | -4.77449 | 111.43254 | 40860 ft | 488 kts | 127° |
| 2026-05-04 20:48 | -4.81610 | 111.48626 | 40856 ft | 488 kts | 127° |
| 2026-05-04 20:48 | -4.85773 | 111.54002 | 40861 ft | 488 kts | 127° |
| 2026-05-04 20:49 | -4.89936 | 111.59379 | 40860 ft | 488 kts | 127° |
| 2026-05-04 20:49 | -4.94101 | 111.64761 | 40860 ft | 488 kts | 127° |
| 2026-05-04 20:50 | -4.98266 | 111.70143 | 40854 ft | 489 kts | 127° |
| 2026-05-04 20:50 | -5.02432 | 111.75527 | 40861 ft | 489 kts | 127° |
| 2026-05-04 20:51 | -5.06600 | 111.80917 | 40853 ft | 489 kts | 127° |
| 2026-05-04 20:51 | -5.10770 | 111.86309 | 40861 ft | 489 kts | 127° |
| 2026-05-04 20:52 | -5.14940 | 111.91703 | 40860 ft | 489 kts | 127° |
| 2026-05-04 20:52 | -5.19111 | 111.97098 | 40860 ft | 489 kts | 127° |
| 2026-05-04 20:53 | -5.23281 | 112.02496 | 40858 ft | 490 kts | 127° |
| 2026-05-04 20:53 | -5.27462 | 112.07907 | 40860 ft | 491 kts | 128° |
| 2026-05-04 20:54 | -5.31648 | 112.13327 | 40862 ft | 491 kts | 128° |
| 2026-05-04 20:54 | -5.35805 | 112.18710 | 40862 ft | 491 kts | 128° |
| 2026-05-04 20:55 | -5.39990 | 112.24131 | 40860 ft | 491 kts | 128° |
| 2026-05-04 20:55 | -5.44174 | 112.29553 | 40858 ft | 491 kts | 128° |
| 2026-05-04 20:56 | -5.48358 | 112.34975 | 40861 ft | 491 kts | 128° |
| 2026-05-04 20:56 | -5.52540 | 112.40396 | 40862 ft | 491 kts | 128° |
| 2026-05-04 20:57 | -5.56724 | 112.45822 | 40861 ft | 491 kts | 128° |
| 2026-05-04 20:57 | -5.60906 | 112.51246 | 40862 ft | 491 kts | 128° |
| 2026-05-04 20:58 | -5.65088 | 112.56672 | 40856 ft | 491 kts | 128° |
| 2026-05-04 20:58 | -5.69271 | 112.62100 | 40862 ft | 492 kts | 128° |
| 2026-05-04 20:59 | -5.73459 | 112.67537 | 40861 ft | 492 kts | 128° |
| 2026-05-04 20:59 | -5.77647 | 112.72973 | 40858 ft | 492 kts | 128° |
| 2026-05-04 21:00 | -5.81836 | 112.78415 | 40862 ft | 492 kts | 128° |
| 2026-05-04 21:00 | -5.86023 | 112.83854 | 40861 ft | 492 kts | 128° |
| 2026-05-04 21:01 | -5.90208 | 112.89293 | 40862 ft | 492 kts | 128° |
| 2026-05-04 21:01 | -5.94392 | 112.94733 | 40859 ft | 492 kts | 128° |
| 2026-05-04 21:02 | -5.98577 | 113.00173 | 40855 ft | 492 kts | 128° |
| 2026-05-04 21:02 | -6.02763 | 113.05617 | 40851 ft | 493 kts | 128° |
| 2026-05-04 21:03 | -6.06960 | 113.11077 | 40861 ft | 494 kts | 128° |
| 2026-05-04 21:03 | -6.11163 | 113.16546 | 40856 ft | 495 kts | 128° |
| 2026-05-04 21:04 | -6.15368 | 113.22019 | 40861 ft | 495 kts | 128° |
| 2026-05-04 21:04 | -6.19540 | 113.27455 | 40862 ft | 495 kts | 128° |
| 2026-05-04 21:05 | -6.23799 | 113.32882 | 40860 ft | 495 kts | 132° |
| 2026-05-04 21:05 | -6.28952 | 113.37436 | 40858 ft | 494 kts | 143° |
| 2026-05-04 21:06 | -6.34499 | 113.41520 | 40854 ft | 494 kts | 145° |
| 2026-05-04 21:06 | -6.40106 | 113.45523 | 40860 ft | 494 kts | 145° |
| 2026-05-04 21:07 | -6.45708 | 113.49533 | 40860 ft | 494 kts | 145° |
| 2026-05-04 21:07 | -6.51297 | 113.53559 | 40861 ft | 494 kts | 145° |
| 2026-05-04 21:08 | -6.56882 | 113.57594 | 40860 ft | 494 kts | 145° |
| 2026-05-04 21:08 | -6.62468 | 113.61632 | 40860 ft | 494 kts | 144° |
| 2026-05-04 21:09 | -6.68055 | 113.65670 | 40860 ft | 494 kts | 144° |
| 2026-05-04 21:09 | -6.73640 | 113.69709 | 40860 ft | 495 kts | 145° |